sensor_id;sensor_type;location;lat;lon;timestamp;temperature;humidity
46932;DHT22;32670;51.464;11.964;2023-05-07T00:01:14;23.30;54.50
46932;DHT22;32670;51.464;11.964;2023-05-07T00:03:39;23.30;54.40
46932;DHT22;32670;51.464;11.964;2023-05-07T00:06:05;23.30;54.30
46932;DHT22;32670;51.464;11.964;2023-05-07T00:08:30;23.30;54.30
46932;DHT22;32670;51.464;11.964;2023-05-07T00:10:56;23.30;54.30
46932;DHT22;32670;51.464;11.964;2023-05-07T00:13:21;23.30;54.20
46932;DHT22;32670;51.464;11.964;2023-05-07T00:15:47;23.30;54.20
46932;DHT22;32670;51.464;11.964;2023-05-07T00:18:12;23.30;54.20
46932;DHT22;32670;51.464;11.964;2023-05-07T00:20:38;23.40;54.20
46932;DHT22;32670;51.464;11.964;2023-05-07T00:23:03;23.30;54.10
46932;DHT22;32670;51.464;11.964;2023-05-07T00:25:29;23.40;54.30
46932;DHT22;32670;51.464;11.964;2023-05-07T00:27:54;23.40;54.30
46932;DHT22;32670;51.464;11.964;2023-05-07T00:30:20;23.40;54.30
46932;DHT22;32670;51.464;11.964;2023-05-07T00:32:45;23.40;54.30
46932;DHT22;32670;51.464;11.964;2023-05-07T00:35:11;23.40;54.40
46932;DHT22;32670;51.464;11.964;2023-05-07T00:37:36;23.40;54.40
46932;DHT22;32670;51.464;11.964;2023-05-07T00:40:02;23.40;54.40
46932;DHT22;32670;51.464;11.964;2023-05-07T00:42:30;23.40;54.30
46932;DHT22;32670;51.464;11.964;2023-05-07T00:44:57;23.40;54.40
46932;DHT22;32670;51.464;11.964;2023-05-07T00:47:23;23.40;54.40
46932;DHT22;32670;51.464;11.964;2023-05-07T00:49:49;23.40;55.00
46932;DHT22;32670;51.464;11.964;2023-05-07T00:52:16;23.40;54.50
46932;DHT22;32670;51.464;11.964;2023-05-07T00:54:42;23.40;54.50
46932;DHT22;32670;51.464;11.964;2023-05-07T00:57:09;23.40;54.60
46932;DHT22;32670;51.464;11.964;2023-05-07T00:59:36;23.40;54.60
46932;DHT22;32670;51.464;11.964;2023-05-07T01:02:02;23.40;54.50
46932;DHT22;32670;51.464;11.964;2023-05-07T01:04:27;23.40;54.50
46932;DHT22;32670;51.464;11.964;2023-05-07T01:06:55;23.50;54.60
46932;DHT22;32670;51.464;11.964;2023-05-07T01:09:22;23.50;54.60
46932;DHT22;32670;51.464;11.964;2023-05-07T01:11:49;23.50;54.60
46932;DHT22;32670;51.464;11.964;2023-05-07T01:14:16;23.50;54.70
46932;DHT22;32670;51.464;11.964;2023-05-07T01:16:42;23.40;54.80
46932;DHT22;32670;51.464;11.964;2023-05-07T01:19:08;23.50;54.90
46932;DHT22;32670;51.464;11.964;2023-05-07T01:21:36;23.50;55.00
46932;DHT22;32670;51.464;11.964;2023-05-07T01:24:02;23.50;55.00
46932;DHT22;32670;51.464;11.964;2023-05-07T01:26:28;23.50;55.00
46932;DHT22;32670;51.464;11.964;2023-05-07T01:28:54;23.50;55.00
46932;DHT22;32670;51.464;11.964;2023-05-07T01:31:20;23.50;55.10
46932;DHT22;32670;51.464;11.964;2023-05-07T01:33:46;23.50;55.30
46932;DHT22;32670;51.464;11.964;2023-05-07T01:36:13;23.50;55.30
46932;DHT22;32670;51.464;11.964;2023-05-07T01:38:41;23.50;55.30
46932;DHT22;32670;51.464;11.964;2023-05-07T01:41:07;23.50;55.40
46932;DHT22;32670;51.464;11.964;2023-05-07T01:43:33;23.50;55.20
46932;DHT22;32670;51.464;11.964;2023-05-07T01:45:59;23.50;55.40
46932;DHT22;32670;51.464;11.964;2023-05-07T01:48:25;23.50;55.40
46932;DHT22;32670;51.464;11.964;2023-05-07T01:50:51;23.50;55.30
46932;DHT22;32670;51.464;11.964;2023-05-07T01:53:17;23.50;55.20
46932;DHT22;32670;51.464;11.964;2023-05-07T01:55:42;23.50;55.30
46932;DHT22;32670;51.464;11.964;2023-05-07T01:58:08;23.50;55.20
46932;DHT22;32670;51.464;11.964;2023-05-07T02:00:34;23.50;55.30
46932;DHT22;32670;51.464;11.964;2023-05-07T02:02:59;23.50;55.40
46932;DHT22;32670;51.464;11.964;2023-05-07T02:05:25;23.50;55.40
46932;DHT22;32670;51.464;11.964;2023-05-07T02:07:50;23.50;55.40
46932;DHT22;32670;51.464;11.964;2023-05-07T02:10:16;23.50;55.20
46932;DHT22;32670;51.464;11.964;2023-05-07T02:12:41;23.50;55.30
46932;DHT22;32670;51.464;11.964;2023-05-07T02:15:08;23.50;55.40
46932;DHT22;32670;51.464;11.964;2023-05-07T02:17:33;23.50;55.40
46932;DHT22;32670;51.464;11.964;2023-05-07T02:19:59;23.50;55.50
46932;DHT22;32670;51.464;11.964;2023-05-07T02:22:25;23.60;55.60
46932;DHT22;32670;51.464;11.964;2023-05-07T02:24:50;23.50;55.60
46932;DHT22;32670;51.464;11.964;2023-05-07T02:27:16;23.50;55.60
46932;DHT22;32670;51.464;11.964;2023-05-07T02:29:41;23.50;55.70
46932;DHT22;32670;51.464;11.964;2023-05-07T02:32:07;23.50;55.80
46932;DHT22;32670;51.464;11.964;2023-05-07T02:34:32;23.50;56.00
46932;DHT22;32670;51.464;11.964;2023-05-07T02:36:58;23.50;56.00
46932;DHT22;32670;51.464;11.964;2023-05-07T02:39:23;23.60;56.10
46932;DHT22;32670;51.464;11.964;2023-05-07T02:41:49;23.60;56.00
46932;DHT22;32670;51.464;11.964;2023-05-07T02:44:14;23.50;55.90
46932;DHT22;32670;51.464;11.964;2023-05-07T02:46:40;23.60;55.90
46932;DHT22;32670;51.464;11.964;2023-05-07T02:49:05;23.60;55.80
46932;DHT22;32670;51.464;11.964;2023-05-07T02:51:31;23.60;55.80
46932;DHT22;32670;51.464;11.964;2023-05-07T02:53:56;23.60;55.90
46932;DHT22;32670;51.464;11.964;2023-05-07T02:56:22;23.60;56.00
46932;DHT22;32670;51.464;11.964;2023-05-07T02:58:47;23.60;56.00
46932;DHT22;32670;51.464;11.964;2023-05-07T03:01:13;23.60;56.10
46932;DHT22;32670;51.464;11.964;2023-05-07T03:03:39;23.60;56.20
46932;DHT22;32670;51.464;11.964;2023-05-07T03:06:05;23.60;56.20
46932;DHT22;32670;51.464;11.964;2023-05-07T03:08:32;23.60;56.20
46932;DHT22;32670;51.464;11.964;2023-05-07T03:10:57;23.60;56.10
46932;DHT22;32670;51.464;11.964;2023-05-07T03:13:23;23.60;56.30
46932;DHT22;32670;51.464;11.964;2023-05-07T03:15:48;23.60;56.20
46932;DHT22;32670;51.464;11.964;2023-05-07T03:18:14;23.60;56.20
46932;DHT22;32670;51.464;11.964;2023-05-07T03:20:39;23.60;56.20
46932;DHT22;32670;51.464;11.964;2023-05-07T03:23:05;23.60;56.30
46932;DHT22;32670;51.464;11.964;2023-05-07T03:25:30;23.60;56.30
46932;DHT22;32670;51.464;11.964;2023-05-07T03:27:56;23.70;56.30
46932;DHT22;32670;51.464;11.964;2023-05-07T03:30:21;23.70;56.40
46932;DHT22;32670;51.464;11.964;2023-05-07T03:32:47;23.70;56.50
46932;DHT22;32670;51.464;11.964;2023-05-07T03:35:12;23.60;56.20
46932;DHT22;32670;51.464;11.964;2023-05-07T03:37:39;23.70;56.40
46932;DHT22;32670;51.464;11.964;2023-05-07T03:40:05;23.70;56.30
46932;DHT22;32670;51.464;11.964;2023-05-07T03:42:31;23.70;56.40
46932;DHT22;32670;51.464;11.964;2023-05-07T03:44:56;23.70;56.30
46932;DHT22;32670;51.464;11.964;2023-05-07T03:47:22;23.60;56.20
46932;DHT22;32670;51.464;11.964;2023-05-07T03:49:47;23.70;56.30
46932;DHT22;32670;51.464;11.964;2023-05-07T03:52:14;23.70;56.20
46932;DHT22;32670;51.464;11.964;2023-05-07T03:54:40;23.60;56.30
46932;DHT22;32670;51.464;11.964;2023-05-07T03:57:05;23.70;56.30
46932;DHT22;32670;51.464;11.964;2023-05-07T03:59:31;23.70;56.30
46932;DHT22;32670;51.464;11.964;2023-05-07T04:01:56;23.70;56.30
46932;DHT22;32670;51.464;11.964;2023-05-07T04:04:22;23.70;56.40
46932;DHT22;32670;51.464;11.964;2023-05-07T04:06:47;23.70;56.40
46932;DHT22;32670;51.464;11.964;2023-05-07T04:09:12;23.70;56.40
46932;DHT22;32670;51.464;11.964;2023-05-07T04:11:38;23.60;56.30
46932;DHT22;32670;51.464;11.964;2023-05-07T04:14:05;23.70;56.50
46932;DHT22;32670;51.464;11.964;2023-05-07T04:16:31;23.70;56.50
46932;DHT22;32670;51.464;11.964;2023-05-07T04:18:56;23.70;56.50
46932;DHT22;32670;51.464;11.964;2023-05-07T04:21:22;23.70;56.50
46932;DHT22;32670;51.464;11.964;2023-05-07T04:23:48;23.70;56.70
46932;DHT22;32670;51.464;11.964;2023-05-07T04:26:14;23.70;56.70
46932;DHT22;32670;51.464;11.964;2023-05-07T04:28:40;23.70;56.60
46932;DHT22;32670;51.464;11.964;2023-05-07T04:31:08;23.70;56.70
46932;DHT22;32670;51.464;11.964;2023-05-07T04:33:34;23.70;56.60
46932;DHT22;32670;51.464;11.964;2023-05-07T04:36:03;23.70;56.70
46932;DHT22;32670;51.464;11.964;2023-05-07T04:38:31;23.70;56.70
46932;DHT22;32670;51.464;11.964;2023-05-07T04:40:58;23.70;56.70
46932;DHT22;32670;51.464;11.964;2023-05-07T04:43:27;23.70;56.80
46932;DHT22;32670;51.464;11.964;2023-05-07T04:45:53;23.70;56.70
46932;DHT22;32670;51.464;11.964;2023-05-07T04:48:18;23.70;56.60
46932;DHT22;32670;51.464;11.964;2023-05-07T04:50:47;23.70;56.70
46932;DHT22;32670;51.464;11.964;2023-05-07T04:53:12;23.70;56.60
46932;DHT22;32670;51.464;11.964;2023-05-07T04:55:38;23.70;56.80
46932;DHT22;32670;51.464;11.964;2023-05-07T04:58:03;23.70;56.70
46932;DHT22;32670;51.464;11.964;2023-05-07T05:00:30;23.70;56.80
46932;DHT22;32670;51.464;11.964;2023-05-07T05:02:55;23.70;56.70
46932;DHT22;32670;51.464;11.964;2023-05-07T05:05:21;23.70;56.80
46932;DHT22;32670;51.464;11.964;2023-05-07T05:07:46;23.70;56.80
46932;DHT22;32670;51.464;11.964;2023-05-07T05:10:12;23.70;56.90
46932;DHT22;32670;51.464;11.964;2023-05-07T05:12:37;23.70;56.90
46932;DHT22;32670;51.464;11.964;2023-05-07T05:15:03;23.70;56.60
46932;DHT22;32670;51.464;11.964;2023-05-07T05:17:29;23.70;56.60
46932;DHT22;32670;51.464;11.964;2023-05-07T05:19:54;23.70;56.50
46932;DHT22;32670;51.464;11.964;2023-05-07T05:22:20;23.70;56.40
46932;DHT22;32670;51.464;11.964;2023-05-07T05:24:45;23.70;56.30
46932;DHT22;32670;51.464;11.964;2023-05-07T05:27:11;23.70;56.20
46932;DHT22;32670;51.464;11.964;2023-05-07T05:29:36;23.70;56.30
46932;DHT22;32670;51.464;11.964;2023-05-07T05:32:01;23.70;56.20
46932;DHT22;32670;51.464;11.964;2023-05-07T05:34:27;23.70;56.40
46932;DHT22;32670;51.464;11.964;2023-05-07T05:36:52;23.80;56.40
46932;DHT22;32670;51.464;11.964;2023-05-07T05:39:18;23.80;57.00
46932;DHT22;32670;51.464;11.964;2023-05-07T05:41:44;23.70;56.30
46932;DHT22;32670;51.464;11.964;2023-05-07T05:44:09;23.80;56.20
46932;DHT22;32670;51.464;11.964;2023-05-07T05:46:34;23.60;47.40
46932;DHT22;32670;51.464;11.964;2023-05-07T05:49:00;23.30;46.00
46932;DHT22;32670;51.464;11.964;2023-05-07T05:51:25;23.00;44.40
46932;DHT22;32670;51.464;11.964;2023-05-07T05:53:51;22.70;44.40
46932;DHT22;32670;51.464;11.964;2023-05-07T05:56:17;22.50;43.80
46932;DHT22;32670;51.464;11.964;2023-05-07T05:58:42;22.40;43.70
46932;DHT22;32670;51.464;11.964;2023-05-07T06:01:08;22.20;43.80
46932;DHT22;32670;51.464;11.964;2023-05-07T06:03:33;22.10;43.50
46932;DHT22;32670;51.464;11.964;2023-05-07T06:05:59;22.00;43.60
46932;DHT22;32670;51.464;11.964;2023-05-07T06:08:28;21.90;43.40
46932;DHT22;32670;51.464;11.964;2023-05-07T06:10:53;21.80;43.40
46932;DHT22;32670;51.464;11.964;2023-05-07T06:13:19;21.80;43.60
46932;DHT22;32670;51.464;11.964;2023-05-07T06:15:44;21.70;43.60
46932;DHT22;32670;51.464;11.964;2023-05-07T06:18:10;21.60;43.60
46932;DHT22;32670;51.464;11.964;2023-05-07T06:20:35;21.60;43.80
46932;DHT22;32670;51.464;11.964;2023-05-07T06:23:01;21.50;43.50
46932;DHT22;32670;51.464;11.964;2023-05-07T06:25:26;21.50;43.50
46932;DHT22;32670;51.464;11.964;2023-05-07T06:27:52;21.50;43.70
46932;DHT22;32670;51.464;11.964;2023-05-07T06:30:17;21.30;43.60
46932;DHT22;32670;51.464;11.964;2023-05-07T06:32:43;21.40;43.80
46932;DHT22;32670;51.464;11.964;2023-05-07T06:35:08;21.30;43.70
46932;DHT22;32670;51.464;11.964;2023-05-07T06:37:34;21.30;43.60
46932;DHT22;32670;51.464;11.964;2023-05-07T06:39:59;21.30;43.70
46932;DHT22;32670;51.464;11.964;2023-05-07T06:42:25;21.20;43.60
46932;DHT22;32670;51.464;11.964;2023-05-07T06:44:50;21.20;43.40
46932;DHT22;32670;51.464;11.964;2023-05-07T06:47:15;21.20;43.40
46932;DHT22;32670;51.464;11.964;2023-05-07T06:49:41;21.20;43.50
46932;DHT22;32670;51.464;11.964;2023-05-07T06:52:06;21.20;43.40
46932;DHT22;32670;51.464;11.964;2023-05-07T06:54:32;21.10;43.40
46932;DHT22;32670;51.464;11.964;2023-05-07T06:56:57;21.10;44.10
46932;DHT22;32670;51.464;11.964;2023-05-07T06:59:23;21.10;43.60
46932;DHT22;32670;51.464;11.964;2023-05-07T07:01:49;21.10;43.40
46932;DHT22;32670;51.464;11.964;2023-05-07T07:04:14;21.10;43.20
46932;DHT22;32670;51.464;11.964;2023-05-07T07:06:40;21.00;43.20
46932;DHT22;32670;51.464;11.964;2023-05-07T07:09:05;21.00;43.10
46932;DHT22;32670;51.464;11.964;2023-05-07T07:11:31;21.00;43.20
46932;DHT22;32670;51.464;11.964;2023-05-07T07:13:56;20.90;43.00
46932;DHT22;32670;51.464;11.964;2023-05-07T07:16:22;20.90;42.90
46932;DHT22;32670;51.464;11.964;2023-05-07T07:18:47;20.90;43.00
46932;DHT22;32670;51.464;11.964;2023-05-07T07:21:13;20.90;43.10
46932;DHT22;32670;51.464;11.964;2023-05-07T07:23:39;20.80;43.00
46932;DHT22;32670;51.464;11.964;2023-05-07T07:26:04;20.80;43.20
46932;DHT22;32670;51.464;11.964;2023-05-07T07:28:31;20.80;43.20
46932;DHT22;32670;51.464;11.964;2023-05-07T07:30:56;20.80;43.20
46932;DHT22;32670;51.464;11.964;2023-05-07T07:33:22;20.70;43.30
46932;DHT22;32670;51.464;11.964;2023-05-07T07:35:47;20.70;43.30
46932;DHT22;32670;51.464;11.964;2023-05-07T07:38:12;20.70;43.40
46932;DHT22;32670;51.464;11.964;2023-05-07T07:40:39;20.70;43.40
46932;DHT22;32670;51.464;11.964;2023-05-07T07:43:04;20.60;43.30
46932;DHT22;32670;51.464;11.964;2023-05-07T07:45:31;20.60;43.50
46932;DHT22;32670;51.464;11.964;2023-05-07T07:47:56;20.60;43.60
46932;DHT22;32670;51.464;11.964;2023-05-07T07:50:22;20.60;43.60
46932;DHT22;32670;51.464;11.964;2023-05-07T07:52:48;20.60;43.50
46932;DHT22;32670;51.464;11.964;2023-05-07T07:55:13;20.60;43.70
46932;DHT22;32670;51.464;11.964;2023-05-07T07:57:43;20.60;43.60
46932;DHT22;32670;51.464;11.964;2023-05-07T08:00:09;20.50;43.70
46932;DHT22;32670;51.464;11.964;2023-05-07T08:02:34;20.50;43.70
46932;DHT22;32670;51.464;11.964;2023-05-07T08:05:00;20.50;43.60
46932;DHT22;32670;51.464;11.964;2023-05-07T08:07:25;20.50;43.40
46932;DHT22;32670;51.464;11.964;2023-05-07T08:09:50;20.50;43.30
46932;DHT22;32670;51.464;11.964;2023-05-07T08:12:16;20.40;43.00
46932;DHT22;32670;51.464;11.964;2023-05-07T08:14:42;20.40;43.20
46932;DHT22;32670;51.464;11.964;2023-05-07T08:17:07;20.50;44.00
46932;DHT22;32670;51.464;11.964;2023-05-07T08:19:34;20.60;44.40
46932;DHT22;32670;51.464;11.964;2023-05-07T08:22:00;20.70;44.60
46932;DHT22;32670;51.464;11.964;2023-05-07T08:24:25;20.80;44.60
46932;DHT22;32670;51.464;11.964;2023-05-07T08:26:51;20.90;44.50
46932;DHT22;32670;51.464;11.964;2023-05-07T08:29:16;21.00;44.40
46932;DHT22;32670;51.464;11.964;2023-05-07T08:31:42;21.10;44.40
46932;DHT22;32670;51.464;11.964;2023-05-07T08:34:07;21.10;44.40
46932;DHT22;32670;51.464;11.964;2023-05-07T08:36:33;21.20;44.40
46932;DHT22;32670;51.464;11.964;2023-05-07T08:38:59;21.20;45.10
46932;DHT22;32670;51.464;11.964;2023-05-07T08:41:24;21.30;44.60
46932;DHT22;32670;51.464;11.964;2023-05-07T08:43:50;21.30;44.60
46932;DHT22;32670;51.464;11.964;2023-05-07T08:46:20;21.40;44.60
46932;DHT22;32670;51.464;11.964;2023-05-07T08:48:50;21.40;44.70
46932;DHT22;32670;51.464;11.964;2023-05-07T08:51:19;21.40;44.70
46932;DHT22;32670;51.464;11.964;2023-05-07T08:53:47;21.50;44.80
46932;DHT22;32670;51.464;11.964;2023-05-07T08:56:16;21.50;44.90
46932;DHT22;32670;51.464;11.964;2023-05-07T08:58:43;21.50;44.80
46932;DHT22;32670;51.464;11.964;2023-05-07T09:01:12;21.50;44.80
46932;DHT22;32670;51.464;11.964;2023-05-07T09:03:38;21.50;44.90
46932;DHT22;32670;51.464;11.964;2023-05-07T09:06:04;21.60;45.00
46932;DHT22;32670;51.464;11.964;2023-05-07T09:08:31;21.60;45.00
46932;DHT22;32670;51.464;11.964;2023-05-07T09:10:57;21.60;45.00
46932;DHT22;32670;51.464;11.964;2023-05-07T09:13:23;21.60;45.10
46932;DHT22;32670;51.464;11.964;2023-05-07T09:15:48;21.60;45.00
46932;DHT22;32670;51.464;11.964;2023-05-07T09:18:13;21.60;45.10
46932;DHT22;32670;51.464;11.964;2023-05-07T09:20:40;21.60;45.10
46932;DHT22;32670;51.464;11.964;2023-05-07T09:23:06;21.60;45.10
46932;DHT22;32670;51.464;11.964;2023-05-07T09:25:33;21.70;45.20
46932;DHT22;32670;51.464;11.964;2023-05-07T09:28:00;21.70;45.20
46932;DHT22;32670;51.464;11.964;2023-05-07T09:30:33;21.70;45.20
46932;DHT22;32670;51.464;11.964;2023-05-07T09:32:59;21.70;45.30
46932;DHT22;32670;51.464;11.964;2023-05-07T09:35:26;21.70;45.30
46932;DHT22;32670;51.464;11.964;2023-05-07T09:37:56;21.70;45.30
46932;DHT22;32670;51.464;11.964;2023-05-07T09:40:24;21.70;45.30
46932;DHT22;32670;51.464;11.964;2023-05-07T09:42:50;21.70;45.30
46932;DHT22;32670;51.464;11.964;2023-05-07T09:45:26;21.70;45.30
46932;DHT22;32670;51.464;11.964;2023-05-07T09:47:55;21.70;45.30
46932;DHT22;32670;51.464;11.964;2023-05-07T09:50:26;21.80;45.40
46932;DHT22;32670;51.464;11.964;2023-05-07T09:52:54;21.80;45.40
46932;DHT22;32670;51.464;11.964;2023-05-07T09:55:20;21.70;45.30
46932;DHT22;32670;51.464;11.964;2023-05-07T09:57:46;21.80;45.40
46932;DHT22;32670;51.464;11.964;2023-05-07T10:00:12;21.80;45.50
46932;DHT22;32670;51.464;11.964;2023-05-07T10:02:42;21.80;45.50
46932;DHT22;32670;51.464;11.964;2023-05-07T10:05:14;21.80;45.50
46932;DHT22;32670;51.464;11.964;2023-05-07T10:07:40;21.80;45.50
46932;DHT22;32670;51.464;11.964;2023-05-07T10:10:06;21.80;45.50
46932;DHT22;32670;51.464;11.964;2023-05-07T10:12:32;21.80;45.50
46932;DHT22;32670;51.464;11.964;2023-05-07T10:15:08;21.80;45.50
46932;DHT22;32670;51.464;11.964;2023-05-07T10:17:36;21.90;45.60
46932;DHT22;32670;51.464;11.964;2023-05-07T10:20:02;21.80;45.50
46932;DHT22;32670;51.464;11.964;2023-05-07T10:22:28;21.90;45.60
46932;DHT22;32670;51.464;11.964;2023-05-07T10:24:56;21.80;45.50
46932;DHT22;32670;51.464;11.964;2023-05-07T10:27:24;21.90;45.60
46932;DHT22;32670;51.464;11.964;2023-05-07T10:30:04;21.90;45.60
46932;DHT22;32670;51.464;11.964;2023-05-07T10:32:49;21.90;45.60
46932;DHT22;32670;51.464;11.964;2023-05-07T10:35:26;21.90;45.60
46932;DHT22;32670;51.464;11.964;2023-05-07T10:37:54;21.90;45.70
46932;DHT22;32670;51.464;11.964;2023-05-07T10:40:20;21.90;45.60
46932;DHT22;32670;51.464;11.964;2023-05-07T10:42:55;21.90;45.70
46932;DHT22;32670;51.464;11.964;2023-05-07T10:45:21;21.90;45.60
46932;DHT22;32670;51.464;11.964;2023-05-07T10:48:06;21.90;45.70
46932;DHT22;32670;51.464;11.964;2023-05-07T10:50:33;21.90;45.70
46932;DHT22;32670;51.464;11.964;2023-05-07T10:55:43;21.90;45.70
46932;DHT22;32670;51.464;11.964;2023-05-07T10:58:31;21.90;46.30
46932;DHT22;32670;51.464;11.964;2023-05-07T11:01:00;22.00;45.70
46932;DHT22;32670;51.464;11.964;2023-05-07T11:03:26;21.90;45.80
46932;DHT22;32670;51.464;11.964;2023-05-07T11:06:14;21.90;45.70
46932;DHT22;32670;51.464;11.964;2023-05-07T11:11:17;21.90;45.80
46932;DHT22;32670;51.464;11.964;2023-05-07T11:13:47;21.90;45.80
46932;DHT22;32670;51.464;11.964;2023-05-07T11:16:23;22.00;45.80
46932;DHT22;32670;51.464;11.964;2023-05-07T11:18:50;21.90;45.80
46932;DHT22;32670;51.464;11.964;2023-05-07T11:21:39;22.00;45.80
46932;DHT22;32670;51.464;11.964;2023-05-07T11:24:09;22.00;45.80
46932;DHT22;32670;51.464;11.964;2023-05-07T11:27:01;22.00;45.80
46932;DHT22;32670;51.464;11.964;2023-05-07T11:29:27;22.00;45.80
46932;DHT22;32670;51.464;11.964;2023-05-07T11:31:55;22.00;45.90
46932;DHT22;32670;51.464;11.964;2023-05-07T11:34:22;22.00;45.90
46932;DHT22;32670;51.464;11.964;2023-05-07T11:36:48;22.00;45.80
46932;DHT22;32670;51.464;11.964;2023-05-07T11:39:27;22.00;45.90
46932;DHT22;32670;51.464;11.964;2023-05-07T11:41:53;22.00;45.90
46932;DHT22;32670;51.464;11.964;2023-05-07T11:44:18;22.00;45.90
46932;DHT22;32670;51.464;11.964;2023-05-07T11:46:44;22.00;45.90
46932;DHT22;32670;51.464;11.964;2023-05-07T11:49:10;22.00;46.10
46932;DHT22;32670;51.464;11.964;2023-05-07T11:51:35;22.00;46.00
46932;DHT22;32670;51.464;11.964;2023-05-07T11:54:03;22.00;46.00
46932;DHT22;32670;51.464;11.964;2023-05-07T11:56:29;22.00;46.00
46932;DHT22;32670;51.464;11.964;2023-05-07T11:58:59;22.00;46.00
46932;DHT22;32670;51.464;11.964;2023-05-07T12:01:24;22.00;45.90
46932;DHT22;32670;51.464;11.964;2023-05-07T12:03:50;22.00;46.50
46932;DHT22;32670;51.464;11.964;2023-05-07T12:06:16;22.00;46.00
46932;DHT22;32670;51.464;11.964;2023-05-07T12:08:42;22.00;45.90
46932;DHT22;32670;51.464;11.964;2023-05-07T12:11:16;22.10;46.00
46932;DHT22;32670;51.464;11.964;2023-05-07T12:13:46;22.10;46.00
46932;DHT22;32670;51.464;11.964;2023-05-07T12:16:12;22.00;46.00
46932;DHT22;32670;51.464;11.964;2023-05-07T12:18:38;22.00;45.90
46932;DHT22;32670;51.464;11.964;2023-05-07T12:21:05;22.10;46.20
46932;DHT22;32670;51.464;11.964;2023-05-07T12:23:31;22.10;46.20
46932;DHT22;32670;51.464;11.964;2023-05-07T12:25:57;22.10;46.50
46932;DHT22;32670;51.464;11.964;2023-05-07T12:28:22;22.10;46.40
46932;DHT22;32670;51.464;11.964;2023-05-07T12:30:49;22.10;46.40
46932;DHT22;32670;51.464;11.964;2023-05-07T12:33:22;22.10;46.40
46932;DHT22;32670;51.464;11.964;2023-05-07T12:35:48;22.10;46.20
46932;DHT22;32670;51.464;11.964;2023-05-07T12:38:15;22.20;46.30
46932;DHT22;32670;51.464;11.964;2023-05-07T12:40:53;22.20;46.30
46932;DHT22;32670;51.464;11.964;2023-05-07T12:43:20;22.10;46.20
46932;DHT22;32670;51.464;11.964;2023-05-07T12:45:50;22.10;46.20
46932;DHT22;32670;51.464;11.964;2023-05-07T12:48:16;22.10;46.20
46932;DHT22;32670;51.464;11.964;2023-05-07T12:50:41;22.10;46.20
46932;DHT22;32670;51.464;11.964;2023-05-07T12:53:10;22.10;46.20
46932;DHT22;32670;51.464;11.964;2023-05-07T12:55:54;22.20;46.30
46932;DHT22;32670;51.464;11.964;2023-05-07T12:58:31;22.10;46.10
46932;DHT22;32670;51.464;11.964;2023-05-07T13:01:00;22.10;46.10
46932;DHT22;32670;51.464;11.964;2023-05-07T13:03:29;22.10;46.10
46932;DHT22;32670;51.464;11.964;2023-05-07T13:05:57;22.10;46.20
46932;DHT22;32670;51.464;11.964;2023-05-07T13:08:28;22.10;46.40
46932;DHT22;32670;51.464;11.964;2023-05-07T13:10:54;22.10;46.70
46932;DHT22;32670;51.464;11.964;2023-05-07T13:13:20;22.20;46.50
46932;DHT22;32670;51.464;11.964;2023-05-07T13:15:46;22.20;46.40
46932;DHT22;32670;51.464;11.964;2023-05-07T13:18:12;22.20;46.30
46932;DHT22;32670;51.464;11.964;2023-05-07T13:20:38;22.10;46.30
46932;DHT22;32670;51.464;11.964;2023-05-07T13:23:03;22.20;46.40
46932;DHT22;32670;51.464;11.964;2023-05-07T13:25:30;22.20;46.30
46932;DHT22;32670;51.464;11.964;2023-05-07T13:27:56;22.20;46.40
46932;DHT22;32670;51.464;11.964;2023-05-07T13:30:22;22.20;46.30
46932;DHT22;32670;51.464;11.964;2023-05-07T13:32:47;22.20;46.30
46932;DHT22;32670;51.464;11.964;2023-05-07T13:35:15;22.20;46.30
46932;DHT22;32670;51.464;11.964;2023-05-07T13:37:40;22.20;46.30
46932;DHT22;32670;51.464;11.964;2023-05-07T13:40:06;22.20;46.30
46932;DHT22;32670;51.464;11.964;2023-05-07T13:42:32;22.20;46.30
46932;DHT22;32670;51.464;11.964;2023-05-07T13:44:58;22.20;46.30
46932;DHT22;32670;51.464;11.964;2023-05-07T13:47:23;22.20;46.30
46932;DHT22;32670;51.464;11.964;2023-05-07T13:49:49;22.20;46.20
46932;DHT22;32670;51.464;11.964;2023-05-07T13:52:15;22.20;46.30
46932;DHT22;32670;51.464;11.964;2023-05-07T13:54:41;22.20;46.30
46932;DHT22;32670;51.464;11.964;2023-05-07T13:57:06;22.20;46.20
46932;DHT22;32670;51.464;11.964;2023-05-07T13:59:32;22.30;46.30
46932;DHT22;32670;51.464;11.964;2023-05-07T14:01:57;22.20;46.30
46932;DHT22;32670;51.464;11.964;2023-05-07T14:04:22;22.20;46.20
46932;DHT22;32670;51.464;11.964;2023-05-07T14:06:48;22.20;46.20
46932;DHT22;32670;51.464;11.964;2023-05-07T14:09:13;22.30;46.20
46932;DHT22;32670;51.464;11.964;2023-05-07T14:11:39;22.20;46.20
46932;DHT22;32670;51.464;11.964;2023-05-07T14:14:05;22.30;46.30
46932;DHT22;32670;51.464;11.964;2023-05-07T14:16:30;22.30;46.30
46932;DHT22;32670;51.464;11.964;2023-05-07T14:18:56;22.30;46.80
46932;DHT22;32670;51.464;11.964;2023-05-07T14:21:21;22.30;46.20
46932;DHT22;32670;51.464;11.964;2023-05-07T14:23:47;22.20;46.20
46932;DHT22;32670;51.464;11.964;2023-05-07T14:26:13;22.30;46.20
46932;DHT22;32670;51.464;11.964;2023-05-07T14:28:39;22.30;46.20
46932;DHT22;32670;51.464;11.964;2023-05-07T14:31:05;22.30;46.20
46932;DHT22;32670;51.464;11.964;2023-05-07T14:33:31;22.30;46.20
46932;DHT22;32670;51.464;11.964;2023-05-07T14:35:57;22.30;46.20
46932;DHT22;32670;51.464;11.964;2023-05-07T14:38:22;22.30;46.20
46932;DHT22;32670;51.464;11.964;2023-05-07T14:40:47;22.30;46.20
46932;DHT22;32670;51.464;11.964;2023-05-07T14:43:13;22.30;46.20
46932;DHT22;32670;51.464;11.964;2023-05-07T14:45:38;22.30;46.30
46932;DHT22;32670;51.464;11.964;2023-05-07T14:48:04;22.30;46.20
46932;DHT22;32670;51.464;11.964;2023-05-07T14:50:30;22.30;46.20
46932;DHT22;32670;51.464;11.964;2023-05-07T14:52:55;22.30;46.20
46932;DHT22;32670;51.464;11.964;2023-05-07T14:55:21;22.30;46.20
46932;DHT22;32670;51.464;11.964;2023-05-07T14:57:46;22.30;46.20
46932;DHT22;32670;51.464;11.964;2023-05-07T15:00:12;22.30;46.20
46932;DHT22;32670;51.464;11.964;2023-05-07T15:02:38;22.30;46.20
46932;DHT22;32670;51.464;11.964;2023-05-07T15:05:04;22.30;46.20
46932;DHT22;32670;51.464;11.964;2023-05-07T15:07:30;22.30;46.20
46932;DHT22;32670;51.464;11.964;2023-05-07T15:09:57;22.30;46.20
46932;DHT22;32670;51.464;11.964;2023-05-07T15:12:23;22.30;46.20
46932;DHT22;32670;51.464;11.964;2023-05-07T15:14:48;22.30;46.20
46932;DHT22;32670;51.464;11.964;2023-05-07T15:17:14;22.30;46.20